TimeCST,TemperatureF,Dew PointF,Humidity,Sea Level PressureIn,VisibilityMPH,Wind Direction,Wind SpeedMPH,Gust SpeedMPH,PrecipitationIn,Events,Conditions,WindDirDegrees,DateUTC
12:54 AM,-14.1,-18.9,79,30.43,9.0,Calm,Calm,-,N/A,,Clear,0,2014-01-03 06:54:00
1:54 AM,-16.1,-20.9,79,30.43,7.0,Calm,Calm,-,N/A,,Clear,0,2014-01-03 07:54:00
2:29 AM,-16.6,-20.2,84,30.30,6.0,East,4.6,-,N/A,,Haze,100,2014-01-03 08:29:00
2:37 AM,-16.6,-22.0,76,30.29,6.0,East,4.6,-,N/A,,Haze,90,2014-01-03 08:37:00
2:54 AM,-17.0,-22.0,78,30.42,7.0,East,3.5,-,N/A,,Mostly Cloudy,90,2014-01-03 08:54:00
3:07 AM,-16.6,-20.2,84,30.29,8.0,East,3.5,-,N/A,,Scattered Clouds,100,2014-01-03 09:07:00
3:54 AM,-17.0,-22.0,78,30.40,8.0,Calm,Calm,-,N/A,,Clear,0,2014-01-03 09:54:00
4:31 AM,-16.6,-22.0,76,30.26,7.0,East,3.5,-,N/A,,Scattered Clouds,90,2014-01-03 10:31:00
4:54 AM,-17.0,-20.9,82,30.37,8.0,East,4.6,-,N/A,,Partly Cloudy,90,2014-01-03 10:54:00
5:54 AM,-15.0,-18.9,82,30.36,8.0,East,4.6,-,N/A,,Clear,100,2014-01-03 11:54:00
6:29 AM,-14.8,-18.4,84,30.21,6.0,East,5.8,-,N/A,,Scattered Clouds,100,2014-01-03 12:29:00
6:54 AM,-14.1,-18.0,82,30.34,5.0,ESE,3.5,-,N/A,,Partly Cloudy,110,2014-01-03 12:54:00
7:23 AM,-13.0,-16.6,84,30.19,7.0,ESE,3.5,-,N/A,,Mostly Cloudy,110,2014-01-03 13:23:00
7:44 AM,-11.2,-14.8,84,30.18,7.0,ESE,4.6,-,N/A,,Mostly Cloudy,110,2014-01-03 13:44:00
7:54 AM,-11.0,-16.1,78,30.31,7.0,East,3.5,-,N/A,,Mostly Cloudy,100,2014-01-03 13:54:00
8:54 AM,-5.1,-9.9,80,30.29,10.0,SSE,5.8,-,N/A,,Overcast,160,2014-01-03 14:54:00
9:54 AM,-0.0,-7.1,72,30.24,9.0,South,11.5,20.7,N/A,,Overcast,180,2014-01-03 15:54:00
10:54 AM,3.0,-5.1,69,30.18,10.0,South,12.7,-,N/A,,Overcast,170,2014-01-03 16:54:00
11:54 AM,5.0,-5.1,63,30.11,10.0,South,15.0,-,N/A,,Overcast,170,2014-01-03 17:54:00
12:54 PM,7.0,-0.9,70,30.02,10.0,South,18.4,25.3,N/A,,Mostly Cloudy,170,2014-01-03 18:54:00
1:54 PM,8.1,-0.9,67,29.98,10.0,South,18.4,27.6,N/A,,Overcast,170,2014-01-03 19:54:00
2:04 PM,8.6,-0.4,67,29.85,10.0,South,18.4,25.3,N/A,,Overcast,170,2014-01-03 20:04:00
2:54 PM,10.0,1.0,67,29.93,10.0,South,17.3,24.2,N/A,,Overcast,170,2014-01-03 20:54:00
3:16 PM,10.4,1.4,67,29.78,10.0,SSE,16.1,24.2,N/A,,Overcast,160,2014-01-03 21:16:00
3:54 PM,12.0,1.9,64,29.86,10.0,South,18.4,25.3,N/A,,Scattered Clouds,170,2014-01-03 21:54:00
4:54 PM,12.0,3.0,67,29.83,10.0,South,15.0,27.6,N/A,,Partly Cloudy,170,2014-01-03 22:54:00
5:54 PM,12.9,3.9,67,29.81,10.0,South,13.8,21.9,N/A,,Partly Cloudy,170,2014-01-03 23:54:00
6:54 PM,12.0,3.9,70,29.79,10.0,South,13.8,-,N/A,,Clear,170,2014-01-04 00:54:00
7:54 PM,12.9,5.0,71,29.76,10.0,South,12.7,-,N/A,,Mostly Cloudy,170,2014-01-04 01:54:00
8:54 PM,15.1,8.1,74,29.73,10.0,South,13.8,-,N/A,,Partly Cloudy,180,2014-01-04 02:54:00
9:54 PM,16.0,10.0,77,29.70,9.0,SSW,21.9,29.9,N/A,,Scattered Clouds,200,2014-01-04 03:54:00
10:54 PM,17.1,10.0,74,29.68,10.0,SSW,19.6,26.5,N/A,,Mostly Cloudy,200,2014-01-04 04:54:00
11:54 PM,17.1,10.9,77,29.64,10.0,South,13.8,-,N/A,,Mostly Cloudy,190,2014-01-04 05:54:00